Time;durP1;ratioP1;P1;durP2;ratioP2;P2;SDS_P1;SDS_P2;PMS_P1;PMS_P2;Temp;Humidity;BMP_temperature;BMP_pressure;BME280_temperature;BME280_humidity;BME280_pressure;Samples;Min_cycle;Max_cycle;Signal;HPM_P1;HPM_P2
2022/05/13 00:00:08;;;;;;;5.15;1.87;;;;;;;15.73;55.23;99137.78;1670671;85;20952;-69
2022/05/13 00:02:35;;;;;;;5.42;2.30;;;;;;;15.74;55.46;99132.73;1670515;85;20995;-70
2022/05/13 00:05:03;;;;;;;7.70;2.17;;;;;;;15.72;55.58;99134.81;1669609;86;21208;-67
2022/05/13 00:07:31;;;;;;;11.10;2.75;;;;;;;15.73;55.64;99137.27;1665960;84;21165;-68
2022/05/13 00:10:05;;;;;;;6.62;3.10;;;;;;;15.78;55.69;99137.45;1665476;84;20906;-67
2022/05/13 00:12:38;;;;;;;5.10;2.60;;;;;;;15.76;55.86;99138.19;1667491;85;21690;-70
2022/05/13 00:15:08;;;;;;;6.60;2.27;;;;;;;15.73;56.11;99133.24;1665284;86;21534;-68
2022/05/13 00:17:35;;;;;;;5.75;2.62;;;;;;;15.69;56.37;99131.20;1668056;86;21286;-70
2022/05/13 00:20:04;;;;;;;5.92;2.62;;;;;;;15.66;56.57;99136.98;1670166;85;21430;-68
2022/05/13 00:22:31;;;;;;;6.90;2.70;;;;;;;15.65;56.77;99138.84;1668586;86;20854;-70
2022/05/13 00:24:58;;;;;;;7.17;2.05;;;;;;;15.66;56.92;99138.33;1665326;86;21503;-71
2022/05/13 00:27:25;;;;;;;7.05;2.70;;;;;;;15.67;57.01;99142.66;1667396;86;21047;-67
2022/05/13 00:29:51;;;;;;;5.90;2.30;;;;;;;15.63;57.22;99139.57;1670203;85;21095;-70
2022/05/13 00:32:18;;;;;;;6.47;2.42;;;;;;;15.66;57.28;99139.66;1665337;86;21518;-68
2022/05/13 00:34:48;;;;;;;8.03;2.30;;;;;;;15.69;57.30;99136.05;1665338;86;20985;-68
2022/05/13 00:37:14;;;;;;;9.63;2.47;;;;;;;15.72;57.27;99134.27;1665851;84;21010;-70
2022/05/13 00:39:40;;;;;;;8.10;1.98;;;;;;;15.75;57.16;99139.72;1667828;86;21561;-67
2022/05/13 00:42:10;;;;;;;12.05;2.95;;;;;;;15.76;57.11;99142.72;1668393;85;21110;-68
2022/05/13 00:44:37;;;;;;;11.78;2.80;;;;;;;15.76;57.13;99138.70;1670402;85;20948;-68
2022/05/13 00:47:05;;;;;;;10.05;2.58;;;;;;;15.77;57.11;99144.38;1668633;86;20970;-70
2022/05/13 00:49:33;;;;;;;11.80;2.52;;;;;;;15.76;57.15;99143.55;1665588;86;21479;-67
2022/05/13 00:52:00;;;;;;;8.75;2.50;;;;;;;15.76;57.22;99143.55;1668127;86;20861;-68
2022/05/13 00:54:28;;;;;;;7.03;2.30;;;;;;;15.75;57.32;99143.75;1653739;86;21329;-67
2022/05/13 00:56:54;;;;;;;10.82;2.52;;;;;;;15.73;57.49;99145.31;1666554;85;20952;-69
2022/05/13 00:59:22;;;;;;;5.17;2.90;;;;;;;15.73;57.53;99149.84;1670332;86;21067;-68
2022/05/13 01:01:49;;;;;;;8.03;3.35;;;;;;;15.71;57.54;99146.56;1670803;85;21506;-68
2022/05/13 01:04:17;;;;;;;9.53;3.35;;;;;;;15.72;57.47;99142.85;1670817;85;21011;-71
2022/05/13 01:06:49;;;;;;;12.30;3.98;;;;;;;15.71;57.45;99143.88;1666201;85;21173;-68
2022/05/13 01:09:16;;;;;;;11.15;4.12;;;;;;;15.69;57.47;99141.42;1670228;86;21895;-68
2022/05/13 01:11:45;;;;;;;14.83;3.27;;;;;;;15.69;57.44;99145.95;1670285;85;21020;-68
2022/05/13 01:14:25;;;;;;;6.90;2.98;;;;;;;15.67;57.40;99144.80;1666088;86;20938;-69
2022/05/13 01:19:37;;;;;;;9.20;3.42;;;;;;;15.60;57.49;99152.05;1670411;86;21486;-71
2022/05/13 01:22:17;;;;;;;14.05;4.03;;;;;;;15.57;57.57;99151.64;1670609;85;20896;-69
2022/05/13 01:24:43;;;;;;;6.17;2.95;;;;;;;15.54;57.59;99151.54;1675346;85;20967;-68
2022/05/13 01:27:10;;;;;;;10.20;4.10;;;;;;;15.54;57.67;99157.44;1676010;85;21438;-72
2022/05/13 01:29:36;;;;;;;13.30;3.08;;;;;;;15.49;57.71;99158.05;1673761;85;21015;-70
2022/05/13 01:32:03;;;;;;;8.55;2.77;;;;;;;15.43;57.80;99153.52;1678745;85;21902;-72
2022/05/13 01:34:30;;;;;;;14.58;3.17;;;;;;;15.39;57.94;99155.77;1674496;85;21057;-69
2022/05/13 01:36:57;;;;;;;14.20;2.90;;;;;;;15.36;58.06;99148.66;1674280;85;21085;-68
2022/05/13 01:39:23;;;;;;;13.25;3.85;;;;;;;15.33;58.11;99148.56;1677418;85;20919;-68
2022/05/13 01:41:50;;;;;;;10.03;2.98;;;;;;;15.31;58.14;99145.78;1674099;85;20943;-71
2022/05/13 01:44:18;;;;;;;11.33;2.92;;;;;;;15.27;58.17;99140.55;1675426;85;21142;-68
2022/05/13 01:46:44;;;;;;;11.08;4.33;;;;;;;15.22;58.33;99146.53;1679153;85;21561;-69
2022/05/13 01:49:11;;;;;;;6.67;2.92;;;;;;;15.19;58.52;99138.91;1673959;85;20960;-68
2022/05/13 01:51:37;;;;;;;6.70;3.27;;;;;;;15.15;58.68;99135.48;1676279;85;20975;-67
2022/05/13 01:54:04;;;;;;;6.75;2.90;;;;;;;15.13;58.78;99137.05;1674762;85;20897;-68
2022/05/13 01:56:31;;;;;;;9.20;3.40;;;;;;;15.12;58.88;99135.93;1679343;85;21111;-67
2022/05/13 01:58:59;;;;;;;9.98;3.35;;;;;;;15.11;58.92;99139.63;1674047;85;21496;-67
2022/05/13 02:01:25;;;;;;;7.70;2.98;;;;;;;15.09;58.99;99140.36;1673791;85;20951;-68
2022/05/13 02:03:52;;;;;;;7.83;3.15;;;;;;;15.06;59.01;99135.41;1673792;85;20920;-69
2022/05/13 02:06:23;;;;;;;7.65;3.22;;;;;;;15.02;59.07;99138.17;1673854;85;20896;-70
2022/05/13 02:08:51;;;;;;;13.28;4.03;;;;;;;14.94;59.17;99141.09;1678929;85;21956;-68
2022/05/13 02:11:20;;;;;;;12.05;3.75;;;;;;;14.92;59.22;99135.92;1679273;85;20936;-70
2022/05/13 02:13:46;;;;;;;10.13;3.80;;;;;;;14.87;59.40;99141.07;1677996;85;21000;-69
2022/05/13 02:16:13;;;;;;;7.85;3.45;;;;;;;14.81;59.54;99141.88;1677830;85;21063;-70
2022/05/13 02:18:40;;;;;;;6.95;5.20;;;;;;;14.75;59.69;99142.72;1678973;85;20937;-68
2022/05/13 02:21:08;;;;;;;13.50;4.62;;;;;;;14.69;59.83;99141.69;1679277;85;21259;-68
2022/05/13 02:23:35;;;;;;;8.05;3.75;;;;;;;14.64;60.02;99146.83;1678675;85;21022;-71
2022/05/13 02:26:04;;;;;;;14.30;4.28;;;;;;;14.62;60.19;99145.39;1685234;85;20908;-71
2022/05/13 02:28:32;;;;;;;18.32;4.60;;;;;;;14.56;60.33;99145.69;1682801;85;21510;-68
2022/05/13 02:30:59;;;;;;;12.82;3.75;;;;;;;14.50;60.59;99145.15;1685080;85;20952;-70
2022/05/13 02:33:28;;;;;;;6.55;3.83;;;;;;;14.43;60.87;99144.32;1684989;85;21332;-72
2022/05/13 02:35:55;;;;;;;11.20;4.30;;;;;;;14.38;61.02;99143.27;1683883;85;20976;-68
2022/05/13 02:38:21;;;;;;;13.43;4.78;;;;;;;14.33;61.20;99139.05;1711906;83;20955;-69
2022/05/13 02:43:34;;;;;;;9.78;4.00;;;;;;;14.20;61.62;99145.16;1665405;85;20943;-68
2022/05/13 02:46:00;;;;;;;10.05;3.98;;;;;;;14.20;61.69;99144.66;1665309;86;21267;-68
2022/05/13 02:48:27;;;;;;;12.88;4.17;;;;;;;14.17;61.71;99137.53;1665104;86;20955;-68
2022/05/13 02:50:53;;;;;;;7.33;3.80;;;;;;;14.11;61.80;99139.16;1665394;86;21441;-68
2022/05/13 02:53:20;;;;;;;12.70;4.03;;;;;;;14.06;61.95;99143.45;1680133;84;20956;-71
2022/05/13 02:55:47;;;;;;;8.98;3.50;;;;;;;14.04;62.15;99144.17;1715942;83;20936;-68
2022/05/13 02:58:14;;;;;;;7.05;3.80;;;;;;;14.01;62.16;99148.58;1715882;83;21153;-70
2022/05/13 03:00:40;;;;;;;10.23;3.95;;;;;;;13.97;62.33;99149.52;1715808;83;21411;-71
2022/05/13 03:03:07;;;;;;;11.05;3.67;;;;;;;13.98;62.59;99158.33;1688086;83;20941;-71
2022/05/13 03:05:35;;;;;;;9.75;3.65;;;;;;;13.99;62.79;99156.81;1672651;85;20944;-70
2022/05/13 03:08:01;;;;;;;7.53;4.20;;;;;;;14.01;63.02;99161.95;1672796;85;21440;-70
2022/05/13 03:10:29;;;;;;;11.53;4.50;;;;;;;14.04;63.08;99166.91;1672615;85;21148;-72
2022/05/13 03:12:57;;;;;;;6.37;3.55;;;;;;;14.06;63.16;99170.20;1672507;85;20957;-69
2022/05/13 03:15:25;;;;;;;12.33;4.42;;;;;;;14.10;63.12;99168.79;1672601;85;21005;-67
2022/05/13 03:17:52;;;;;;;17.82;4.42;;;;;;;14.13;63.06;99162.51;1672687;85;20953;-71
2022/05/13 03:20:20;;;;;;;14.38;4.75;;;;;;;14.20;62.97;99162.55;1672668;85;20937;-68
2022/05/13 03:22:48;;;;;;;7.58;4.12;;;;;;;14.28;62.83;99161.54;1673038;85;21167;-68
2022/05/13 03:25:14;;;;;;;14.75;4.20;;;;;;;14.36;62.55;99158.20;1671548;83;21171;-68
2022/05/13 03:27:41;;;;;;;18.48;4.55;;;;;;;14.46;62.46;99159.98;1678378;85;20912;-68
2022/05/13 03:30:09;;;;;;;12.47;4.22;;;;;;;14.61;62.33;99161.95;1680981;85;20947;-67
2022/05/13 03:32:36;;;;;;;15.78;5.30;;;;;;;14.82;62.11;99167.64;1681533;85;20956;-67
2022/05/13 03:35:05;;;;;;;9.90;4.70;;;;;;;15.01;61.84;99166.01;1683972;85;21152;-70
2022/05/13 03:37:32;;;;;;;15.50;4.78;;;;;;;15.20;61.44;99165.98;1681822;85;21002;-70
2022/05/13 03:39:59;;;;;;;9.23;4.00;;;;;;;15.35;60.90;99167.96;1678494;85;20956;-68
2022/05/13 03:42:26;;;;;;;9.93;4.03;;;;;;;15.50;60.45;99166.41;1682691;85;20988;-70
2022/05/13 03:44:52;;;;;;;15.48;4.95;;;;;;;15.61;60.20;99169.80;1695946;83;20966;-68
2022/05/13 03:47:19;;;;;;;9.85;4.25;;;;;;;15.71;59.91;99170.19;1702777;83;21281;-73
2022/05/13 03:49:45;;;;;;;16.55;5.58;;;;;;;15.78;59.79;99166.95;1683577;85;21083;-68
2022/05/13 03:52:12;;;;;;;16.37;5.95;;;;;;;15.84;59.78;99176.85;1676233;85;21073;-68
2022/05/13 03:54:39;;;;;;;8.65;4.65;;;;;;;15.91;59.85;99180.84;1680189;85;21052;-67
2022/05/13 03:57:08;;;;;;;17.07;7.50;;;;;;;16.02;59.62;99178.33;1679230;85;20959;-67
2022/05/13 03:59:36;;;;;;;13.32;5.22;;;;;;;16.23;59.46;99175.87;1683473;85;21314;-68
2022/05/13 04:02:04;;;;;;;10.45;4.85;;;;;;;16.54;59.10;99169.23;1683865;85;20936;-68
2022/05/13 04:08:56;;;;;;;13.58;5.53;;;;;;;16.94;58.32;99171.13;1670879;85;21495;-69
2022/05/13 04:09:43;;;;;;;7.58;4.50;;;;;;;17.73;56.59;99177.14;1667454;85;21006;-68
2022/05/13 04:17:43;;;;;;;12.45;5.97;;;;;;;19.15;53.22;99169.23;1677971;85;20960;-69
2022/05/13 04:20:10;;;;;;;10.88;4.95;;;;;;;19.73;51.28;99167.92;1680572;85;20987;-68
2022/05/13 04:22:40;;;;;;;16.93;4.53;;;;;;;20.28;49.90;99169.66;1684009;85;21000;-68
2022/05/13 04:25:09;;;;;;;7.83;4.45;;;;;;;20.88;47.81;99172.11;1681898;85;21217;-69
2022/05/13 04:27:35;;;;;;;12.23;4.03;;;;;;;21.43;45.95;99162.77;1682231;85;21026;-69
2022/05/13 04:30:02;;;;;;;5.30;3.70;;;;;;;21.98;44.49;99165.99;1686836;85;20904;-68
2022/05/13 04:32:28;;;;;;;7.22;4.10;;;;;;;22.46;43.10;99166.05;1659303;85;20928;-70
2022/05/13 04:34:55;;;;;;;6.42;4.75;;;;;;;22.90;41.96;99167.33;1672018;85;20986;-68
2022/05/13 04:37:21;;;;;;;14.93;5.10;;;;;;;23.33;40.70;99169.31;1681596;85;22119;-68
2022/05/13 04:39:52;;;;;;;9.23;4.60;;;;;;;23.71;39.96;99168.27;1686934;85;20952;-68
2022/05/13 04:45:02;;;;;;;12.73;4.08;;;;;;;24.43;38.14;99172.41;1683011;85;21439;-68
2022/05/13 04:50:14;;;;;;;9.00;3.92;;;;;;;25.04;36.91;99179.37;1681606;85;21272;-69
2022/05/13 04:52:40;;;;;;;12.03;4.10;;;;;;;25.37;35.96;99178.81;1683450;85;20904;-68
2022/05/13 04:55:09;;;;;;;6.53;3.37;;;;;;;25.64;35.47;99173.10;1684917;85;21487;-69
2022/05/13 04:57:36;;;;;;;11.18;3.85;;;;;;;25.96;34.93;99174.94;1686141;85;21015;-67
2022/05/13 05:00:04;;;;;;;8.55;4.00;;;;;;;26.27;34.30;99177.03;1655209;85;21022;-69
2022/05/13 05:02:33;;;;;;;11.25;3.40;;;;;;;26.42;33.81;99182.41;1681537;85;21338;-69
2022/05/13 05:05:00;;;;;;;5.97;3.30;;;;;;;26.33;33.73;99185.47;1681594;85;20994;-72
2022/05/13 05:07:27;;;;;;;9.30;4.08;;;;;;;26.13;33.73;99200.52;1681570;85;21482;-68
2022/05/13 05:09:54;;;;;;;13.38;4.47;;;;;;;25.90;34.06;99201.92;1686837;85;20991;-70
2022/05/13 05:12:20;;;;;;;9.80;3.60;;;;;;;25.72;34.49;99201.97;1687446;85;20869;-69
2022/05/13 05:14:47;;;;;;;7.72;2.67;;;;;;;25.50;34.57;99200.08;1683270;85;21792;-68
2022/05/13 05:17:13;;;;;;;8.63;2.95;;;;;;;25.27;34.69;99194.34;1698828;83;20995;-68
2022/05/13 05:19:39;;;;;;;5.62;2.42;;;;;;;24.97;34.92;99195.97;1706721;83;21074;-69
2022/05/13 05:22:06;;;;;;;9.68;2.95;;;;;;;24.74;35.23;99201.06;1690781;83;21057;-68
2022/05/13 05:24:33;;;;;;;6.70;3.00;;;;;;;24.47;35.71;99195.81;1689939;84;20986;-67
2022/05/13 05:27:00;;;;;;;9.65;2.72;;;;;;;24.24;36.11;99199.81;1696090;84;21155;-67
2022/05/13 05:29:26;;;;;;;9.38;3.08;;;;;;;24.04;36.40;99203.74;1696228;84;20979;-67
2022/05/13 05:31:54;;;;;;;11.90;3.05;;;;;;;23.82;36.57;99205.27;1696772;84;20987;-67
2022/05/13 05:34:20;;;;;;;8.88;3.25;;;;;;;23.56;37.12;99209.43;1695605;84;20959;-66
2022/05/13 05:36:47;;;;;;;5.08;2.42;;;;;;;23.44;37.42;99215.03;1693414;84;21081;-67
2022/05/13 05:39:13;;;;;;;5.72;2.85;;;;;;;23.32;37.79;99213.02;1693597;84;21128;-68
2022/05/13 05:41:41;;;;;;;14.45;4.15;;;;;;;;;;1694578;83;20967;-67
2022/05/13 05:44:08;;;;;;;7.75;3.12;;;;;;;23.09;38.15;99220.97;1698270;84;21068;-67
2022/05/13 05:46:34;;;;;;;6.50;3.10;;;;;;;22.96;38.46;99229.52;1693811;84;20935;-65
2022/05/13 05:49:02;;;;;;;6.35;3.35;;;;;;;22.84;38.51;99228.83;1693219;84;21052;-67
2022/05/13 05:51:28;;;;;;;4.92;2.67;;;;;;;22.68;38.98;99227.84;1694444;84;21161;-67
2022/05/13 05:59:25;;;;;;;9.18;3.20;;;;;;;22.49;39.94;99231.13;1699221;84;21094;-67
2022/05/13 06:01:52;;;;;;;10.50;2.65;;;;;;;22.36;39.72;99236.41;1698980;84;21035;-69
2022/05/13 06:04:19;;;;;;;6.67;2.33;;;;;;;22.24;39.81;99243.02;1696880;84;21251;-68
2022/05/13 06:06:45;;;;;;;4.62;2.77;;;;;;;22.18;40.12;99246.19;1693348;84;21635;-65
2022/05/13 06:09:11;;;;;;;14.78;3.85;;;;;;;22.25;40.27;99252.23;1693436;84;21061;-67
2022/05/13 06:11:38;;;;;;;5.45;2.58;;;;;;;22.25;40.27;99252.23;1693600;84;21057;-66
2022/05/13 06:14:05;;;;;;;8.18;2.90;;;;;;;22.35;40.29;99258.31;1693406;84;21105;-70
2022/05/13 06:16:31;;;;;;;5.33;2.70;;;;;;;22.43;40.22;99249.75;1699127;84;22171;-67
2022/05/13 06:19:00;;;;;;;5.78;3.02;;;;;;;22.63;40.06;99254.91;1699175;84;21022;-68
2022/05/13 06:21:28;;;;;;;12.55;3.05;;;;;;;22.94;39.75;99256.09;1695994;84;21050;-70
2022/05/13 06:23:55;;;;;;;8.23;2.47;;;;;;;23.00;39.56;99257.75;1693485;84;21579;-68
2022/05/13 06:26:22;;;;;;;7.80;3.42;;;;;;;23.16;39.41;99251.41;1688509;84;21016;-68
2022/05/13 06:28:49;;;;;;;12.73;3.20;;;;;;;23.50;39.06;99244.39;1686679;84;21153;-71
2022/05/13 06:31:16;;;;;;;11.95;3.00;;;;;;;23.60;39.23;99249.37;1683814;85;21050;-68
2022/05/13 06:33:44;;;;;;;6.05;2.87;;;;;;;23.84;39.01;99244.38;1681094;85;21003;-68
2022/05/13 06:36:11;;;;;;;5.87;2.95;;;;;;;24.20;38.20;99238.10;1680689;84;20991;-67
2022/05/13 06:38:38;;;;;;;8.80;3.33;;;;;;;24.44;37.78;99239.84;1680922;85;21117;-70
2022/05/13 06:41:05;;;;;;;15.38;3.05;;;;;;;24.77;37.37;99229.89;1683117;85;21872;-69
2022/05/13 06:43:32;;;;;;;8.10;2.87;;;;;;;25.09;36.91;99233.80;1686438;85;21079;-69
2022/05/13 06:45:58;;;;;;;6.15;3.15;;;;;;;25.28;36.54;99233.55;1686529;85;21080;-69
2022/05/13 06:48:25;;;;;;;5.45;2.75;;;;;;;25.65;36.15;99237.39;1686364;85;21031;-69
2022/05/13 06:50:52;;;;;;;5.70;3.02;;;;;;;25.94;35.46;99241.14;1684889;85;21027;-69
2022/05/13 06:53:20;;;;;;;6.78;2.67;;;;;;;26.16;34.86;99234.05;1685036;85;21125;-68
2022/05/13 06:55:47;;;;;;;5.97;3.27;;;;;;;26.33;34.63;99234.55;1697722;83;21498;-68
2022/05/13 06:58:13;;;;;;;6.97;3.72;;;;;;;26.53;34.28;99239.91;1700564;83;20975;-68
2022/05/13 07:00:42;;;;;;;5.00;3.30;;;;;;;26.75;33.94;99224.53;1685748;85;20946;-70
2022/05/13 07:03:14;;;;;;;6.85;2.90;;;;;;;27.04;33.34;99221.94;1684316;85;20988;-66
2022/05/13 07:05:41;;;;;;;7.92;2.90;;;;;;;27.26;32.95;99218.20;1687103;85;21300;-66
2022/05/13 07:08:08;;;;;;;5.78;2.55;;;;;;;27.51;32.70;99216.11;1686927;84;20995;-68
2022/05/13 07:10:35;;;;;;;8.80;2.67;;;;;;;27.88;32.33;99223.68;1687065;85;20988;-68
2022/05/13 07:13:04;;;;;;;5.12;2.77;;;;;;;28.23;31.53;99214.31;1687043;85;21032;-70
2022/05/13 07:15:32;;;;;;;5.25;2.08;;;;;;;28.60;30.72;99216.31;1687116;84;20961;-68
2022/05/13 07:17:59;;;;;;;4.92;2.30;;;;;;;29.04;29.79;99207.22;1687042;85;21115;-68
2022/05/13 07:20:28;;;;;;;3.40;2.35;;;;;;;29.43;29.23;99211.56;1687296;85;21067;-69
2022/05/13 07:22:55;;;;;;;5.80;1.98;;;;;;;30.10;28.70;99211.45;1687056;85;21023;-70
2022/05/13 07:25:22;;;;;;;9.58;3.65;;;;;;;30.47;27.96;99207.98;1686973;85;21028;-70
2022/05/13 07:27:48;;;;;;;4.65;2.92;;;;;;;30.91;27.86;99200.44;1687107;85;21019;-69
2022/05/13 07:30:15;;;;;;;5.70;2.37;;;;;;;31.58;27.38;99197.16;1687070;85;21695;-68
2022/05/13 07:32:42;;;;;;;4.95;2.15;;;;;;;32.28;25.91;99199.12;1686983;85;20920;-71
2022/05/13 07:35:09;;;;;;;5.28;1.70;;;;;;;32.84;24.52;99199.12;1687229;84;20944;-68
2022/05/13 07:37:36;;;;;;;3.65;1.77;;;;;;;33.26;23.41;99195.33;1687093;85;21571;-71
2022/05/13 07:42:50;;;;;;;7.30;2.02;;;;;;;33.89;22.24;99191.81;1687421;84;21474;-65
2022/05/13 07:45:16;;;;;;;2.30;1.77;;;;;;;34.08;21.87;99191.67;1686930;85;20968;-71
2022/05/13 07:47:43;;;;;;;4.90;1.40;;;;;;;34.29;21.42;99202.77;1686952;85;21027;-69
2022/05/13 07:50:12;;;;;;;2.58;0.95;;;;;;;34.56;19.11;99205.09;1687036;85;20951;-69
2022/05/13 07:52:40;;;;;;;2.10;1.10;;;;;;;34.81;17.86;99201.91;1687168;85;20956;-68
2022/05/13 07:55:10;;;;;;;2.90;1.25;;;;;;;34.80;17.96;99205.83;1687001;85;21159;-68
2022/05/13 07:57:40;;;;;;;3.35;1.42;;;;;;;34.95;18.38;99196.12;1687039;85;21164;-68
2022/05/13 08:02:58;;;;;;;6.62;1.30;;;;;;;35.34;18.30;99202.55;1687116;85;21431;-67
2022/05/13 08:05:27;;;;;;;1.87;1.17;;;;;;;35.54;17.70;99203.70;1687165;85;20995;-68
2022/05/13 08:08:01;;;;;;;2.72;1.12;;;;;;;35.76;17.53;99195.80;1687134;85;21230;-67
2022/05/13 08:10:28;;;;;;;6.62;1.65;;;;;;;35.86;17.25;99198.69;1686624;85;21522;-68
2022/05/13 08:12:54;;;;;;;3.55;1.30;;;;;;;36.22;17.14;99199.33;1687033;85;20977;-68
2022/05/13 08:15:21;;;;;;;3.15;1.27;;;;;;;36.67;17.16;99197.26;1687396;85;21027;-70
2022/05/13 08:17:48;;;;;;;3.22;1.40;;;;;;;37.22;16.46;99195.16;1687180;85;20952;-69
2022/05/13 08:20:14;;;;;;;5.53;1.37;;;;;;;37.37;15.96;99194.40;1717405;83;21198;-68
2022/05/13 08:22:41;;;;;;;8.00;2.20;;;;;;;37.35;15.84;99192.56;1718529;83;20887;-71
2022/05/13 08:25:09;;;;;;;2.95;1.50;;;;;;;37.28;16.12;99194.34;1718437;83;20938;-68
2022/05/13 08:27:35;;;;;;;3.60;1.42;;;;;;;36.89;16.16;99195.34;1713131;83;21428;-67
2022/05/13 08:30:03;;;;;;;2.90;1.30;;;;;;;36.24;16.49;99199.21;1713162;83;20959;-69
2022/05/13 08:32:30;;;;;;;6.53;1.25;;;;;;;35.45;16.99;99205.70;1713505;83;21141;-69
2022/05/13 08:34:57;;;;;;;3.40;1.35;;;;;;;34.77;17.36;99205.12;1713051;83;21054;-71
2022/05/13 08:37:24;;;;;;;3.80;1.00;;;;;;;34.22;17.79;99208.58;1713155;83;20946;-67
2022/05/13 08:39:51;;;;;;;8.45;1.80;;;;;;;33.85;18.21;99199.93;1713198;83;20911;-68
2022/05/13 08:42:35;;;;;;;1.90;1.15;;;;;;;33.88;18.59;99199.84;1713218;83;20954;-68
2022/05/13 08:44:57;;;;;;;3.37;1.27;;;;;;;33.93;18.36;99196.34;1713801;82;21186;-69
2022/05/13 08:47:41;;;;;;;3.40;1.32;;;;;;;34.49;17.79;99186.03;1713138;83;21256;-70
2022/05/13 08:50:24;;;;;;;3.37;1.10;;;;;;;34.91;17.28;99183.54;1712953;83;20995;-72
2022/05/13 08:53:38;;;;;;;2.92;0.95;;;;;;;35.49;16.86;99180.35;1713275;83;20911;-70
2022/05/13 08:56:08;;;;;;;4.00;0.75;;;;;;;36.14;16.12;99177.52;1712350;83;21449;-69
2022/05/13 08:58:58;;;;;;;4.65;1.60;;;;;;;36.17;16.10;99172.69;1713249;83;21899;-68
2022/05/13 09:01:33;;;;;;;5.08;1.00;;;;;;;37.01;15.58;99167.64;1713095;83;21032;-67
2022/05/13 09:04:09;;;;;;;3.15;0.50;;;;;;;37.53;14.35;99166.72;1713224;83;20998;-71
2022/05/13 09:06:56;;;;;;;1.10;0.65;;;;;;;37.43;14.14;99158.92;1713127;83;20987;-67
2022/05/13 09:09:22;;;;;;;1.10;0.68;;;;;;;37.54;14.25;99160.84;1713176;83;20863;-67
2022/05/13 09:12:00;;;;;;;3.47;1.32;;;;;;;36.55;15.05;99152.97;1713182;83;21743;-68
2022/05/13 09:14:57;;;;;;;3.95;1.07;;;;;;;36.63;14.90;99149.25;1711887;83;20991;-68
2022/05/13 09:17:30;;;;;;;;;;;;;;;36.98;14.32;99148.12;1715843;83;21449;-68
2022/05/13 09:20:16;;;;;;;0.90;0.60;;;;;;;37.71;13.70;99145.22;1713233;83;20104;-67
2022/05/13 09:22:49;;;;;;;;;;;;;;;38.53;13.30;99155.01;1715701;83;20950;-67
2022/05/13 09:25:58;;;;;;;2.37;0.70;;;;;;;39.06;12.92;99150.59;1713144;83;21332;-68
2022/05/13 09:28:26;;;;;;;2.10;0.80;;;;;;;39.84;12.28;99141.78;1712945;83;20919;-70
2022/05/13 09:30:58;;;;;;;1.75;0.80;;;;;;;40.37;11.85;99137.08;1713102;83;20941;-67
2022/05/13 09:33:35;;;;;;;1.80;0.80;;;;;;;39.83;12.17;99140.19;1713057;83;20907;-67
2022/05/13 09:36:26;;;;;;;4.70;1.05;;;;;;;39.46;12.63;99138.50;1708607;83;20999;-68
2022/05/13 09:39:00;;;;;;;3.58;0.60;;;;;;;40.33;12.51;99129.86;1713135;83;22152;-68
2022/05/13 09:41:32;;;;;;;1.07;0.62;;;;;;;40.75;11.69;99121.31;1708845;83;20986;-68
2022/05/13 09:44:23;;;;;;;2.20;0.62;;;;;;;40.76;11.32;99128.48;1713187;83;20998;-68
2022/05/13 09:46:52;;;;;;;0.70;0.70;;;;;;;40.13;11.47;99120.02;1713053;83;21019;-68
2022/05/13 09:49:29;;;;;;;11.25;1.47;;;;;;;39.90;11.59;99120.00;1713085;83;21007;-68
2022/05/13 09:52:03;;;;;;;2.60;0.70;;;;;;;39.41;12.05;99118.52;1713038;83;21259;-67
2022/05/13 09:54:36;;;;;;;3.77;0.53;;;;;;;39.31;12.16;99117.75;1712606;83;20978;-68
2022/05/13 09:57:18;;;;;;;4.00;1.10;;;;;;;39.49;12.09;99118.88;1713149;83;20943;-67
2022/05/13 09:59:52;;;;;;;1.00;0.50;;;;;;;39.22;12.19;99117.16;1712863;83;21686;-66
2022/05/13 10:02:24;;;;;;;1.80;1.02;;;;;;;39.05;12.20;99118.99;1713279;83;21054;-69
2022/05/13 10:04:55;;;;;;;2.87;0.85;;;;;;;37.86;12.83;99110.93;1713181;83;21800;-67
2022/05/13 10:07:24;;;;;;;1.57;0.72;;;;;;;37.01;13.20;99110.00;1715827;82;20852;-67
2022/05/13 10:15:39;;;;;;;1.40;0.60;;;;;;;34.56;15.38;99105.67;1713184;83;20967;-71
2022/05/13 10:18:27;;;;;;;4.30;0.65;;;;;;;33.77;16.05;99097.89;1685219;83;21322;-67
2022/05/13 10:21:07;;;;;;;2.95;0.80;;;;;;;33.26;16.40;99099.68;1713391;83;20982;-71
2022/05/13 10:23:58;;;;;;;1.20;0.60;;;;;;;32.54;17.03;99087.73;1713285;82;20940;-69
2022/05/13 10:26:29;;;;;;;5.50;1.10;;;;;;;32.05;17.54;99088.36;1713070;83;20872;-68
2022/05/13 10:29:18;;;;;;;3.45;0.70;;;;;;;31.69;18.31;99092.67;1713097;83;21015;-68
2022/05/13 10:31:45;;;;;;;0.68;0.55;;;;;;;31.47;18.81;99089.19;1713407;83;21245;-67
2022/05/13 10:34:39;;;;;;;3.65;0.88;;;;;;;31.29;19.01;99101.19;1713081;83;21319;-68
2022/05/13 10:37:31;;;;;;;1.60;0.80;;;;;;;31.01;19.04;99099.13;1713111;83;20986;-69
2022/05/13 10:40:09;;;;;;;4.15;1.07;;;;;;;30.83;19.13;99091.86;1713034;83;20970;-69
2022/05/13 10:42:41;;;;;;;2.60;0.90;;;;;;;30.61;19.27;99093.23;1711241;82;21492;-67
2022/05/13 10:45:20;;;;;;;2.42;0.82;;;;;;;30.44;19.61;99087.84;1713103;83;21149;-66
2022/05/13 10:48:06;;;;;;;4.80;0.85;;;;;;;30.31;19.70;99092.78;1713107;83;20966;-67
2022/05/13 10:50:37;;;;;;;3.10;0.80;;;;;;;30.18;20.06;99087.31;1713315;83;21453;-68
2022/05/13 10:53:40;;;;;;;2.90;1.00;;;;;;;30.13;20.02;99097.84;1712323;83;21842;-71
2022/05/13 10:56:43;;;;;;;1.62;0.80;;;;;;;30.02;20.00;99093.68;1713228;83;21603;-67
2022/05/13 10:59:33;;;;;;;2.37;0.90;;;;;;;29.85;20.09;99091.55;1713071;83;22053;-67
2022/05/13 11:02:25;;;;;;;0.50;0.50;;;;;;;29.83;20.60;99091.59;1712001;83;21002;-70
2022/05/13 11:05:20;;;;;;;2.65;0.90;;;;;;;29.91;20.47;99091.70;1712723;83;21011;-70
2022/05/13 11:07:58;;;;;;;2.45;0.70;;;;;;;29.85;20.53;99090.76;1713353;83;20958;-68
2022/05/13 11:10:54;;;;;;;4.08;0.78;;;;;;;29.66;20.44;99091.38;1712875;83;21418;-68
2022/05/13 11:13:52;;;;;;;5.75;0.88;;;;;;;29.52;20.61;99087.25;1685871;83;21504;-71
2022/05/13 11:16:52;;;;;;;1.62;0.80;;;;;;;29.49;20.94;99086.48;1712602;83;20954;-69
2022/05/13 11:19:51;;;;;;;2.87;0.80;;;;;;;29.43;20.81;99081.41;1713238;83;21524;-67
2022/05/13 11:22:32;;;;;;;1.98;0.95;;;;;;;29.25;21.11;99078.42;1713042;83;21070;-70
2022/05/13 11:28:15;;;;;;;2.52;0.60;;;;;;;28.94;21.05;99070.46;1690784;83;21368;-67
2022/05/13 11:30:53;;;;;;;1.47;0.88;;;;;;;28.63;21.32;99067.41;1713062;83;21150;-69
2022/05/13 11:33:43;;;;;;;2.85;0.80;;;;;;;28.47;21.61;99062.46;1713258;83;21003;-69
2022/05/13 11:36:39;;;;;;;1.47;1.20;;;;;;;28.41;21.85;99058.98;1713178;83;21051;-67
2022/05/13 11:39:27;;;;;;;1.02;0.70;;;;;;;28.34;21.95;99056.37;1712534;83;21010;-67
2022/05/13 11:42:04;;;;;;;6.15;0.80;;;;;;;28.30;21.64;99044.38;1713306;83;21560;-66
2022/05/13 11:44:43;;;;;;;5.53;0.95;;;;;;;28.16;22.00;99034.17;1713199;83;20856;-67
2022/05/13 11:47:15;;;;;;;3.90;0.90;;;;;;;28.15;22.20;99031.75;1713141;83;20938;-67
2022/05/13 11:49:44;;;;;;;1.85;0.68;;;;;;;28.15;22.37;99039.41;1712620;83;20995;-67
2022/05/13 11:52:28;;;;;;;2.45;0.42;;;;;;;28.15;22.12;99033.94;1713381;83;20935;-69
2022/05/13 11:55:37;;;;;;;5.72;1.05;;;;;;;28.09;22.39;99025.53;1709205;83;21154;-68
2022/05/13 11:58:03;;;;;;;1.22;0.55;;;;;;;28.09;22.60;99026.90;1713055;83;20940;-68
2022/05/13 12:00:37;;;;;;;1.07;0.80;;;;;;;28.21;22.33;99018.81;1713233;83;20999;-71
2022/05/13 12:03:14;;;;;;;4.08;1.02;;;;;;;28.18;22.35;99018.86;1713106;83;20959;-68
2022/05/13 12:06:10;;;;;;;2.12;0.98;;;;;;;28.20;22.87;99018.55;1713298;83;20919;-68
2022/05/13 12:08:42;;;;;;;2.45;1.12;;;;;;;28.24;22.49;99005.89;1713292;83;21873;-70
2022/05/13 12:11:34;;;;;;;2.47;1.02;;;;;;;28.16;22.68;99004.09;1713087;83;21500;-71
2022/05/13 12:14:32;;;;;;;1.85;0.85;;;;;;;28.11;22.94;99003.35;1713223;83;20939;-68
2022/05/13 12:17:50;;;;;;;1.92;0.80;;;;;;;28.12;23.12;98994.05;1713179;83;21006;-68
2022/05/13 12:20:54;;;;;;;2.33;0.72;;;;;;;28.04;22.74;98992.80;1711726;83;20986;-68
2022/05/13 12:23:36;;;;;;;3.70;0.93;;;;;;;27.82;23.04;98987.05;1713589;83;21238;-67
2022/05/13 12:26:06;;;;;;;2.37;0.98;;;;;;;27.74;23.24;98984.97;1713180;83;20895;-67
2022/05/13 12:28:59;;;;;;;4.35;1.00;;;;;;;27.68;23.18;98983.44;1718244;83;20883;-67
2022/05/13 12:31:34;;;;;;;2.65;1.02;;;;;;;27.54;23.20;98977.87;1718587;83;20939;-69